sensor_id;sensor_type;location;lat;lon;timestamp;pressure;altitude;pressure_sealevel;temperature;humidity
5146;BME280;2591;48.144;15.152;2024-03-22T00:02:21;76359.59;;;-144.65;100.00
5146;BME280;2591;48.144;15.152;2024-03-22T00:05:06;76367.75;;;-144.65;100.00
5146;BME280;2591;48.144;15.152;2024-03-22T00:07:52;76371.81;;;-144.65;100.00
5146;BME280;2591;48.144;15.152;2024-03-22T00:10:36;76373.84;;;-144.65;100.00
5146;BME280;2591;48.144;15.152;2024-03-22T00:13:23;76379.97;;;-144.65;100.00
5146;BME280;2591;48.144;15.152;2024-03-22T00:16:07;76371.81;;;-144.65;100.00
5146;BME280;2591;48.144;15.152;2024-03-22T00:18:53;76384.06;;;-144.65;100.00
5146;BME280;2591;48.144;15.152;2024-03-22T00:21:37;76379.97;;;-144.65;100.00
5146;BME280;2591;48.144;15.152;2024-03-22T00:24:23;76371.81;;;-144.65;100.00
5146;BME280;2591;48.144;15.152;2024-03-22T00:27:07;76382.00;;;-144.65;100.00
5146;BME280;2591;48.144;15.152;2024-03-22T00:29:54;76388.13;;;-144.65;100.00
5146;BME280;2591;48.144;15.152;2024-03-22T00:32:39;76392.22;;;-144.65;100.00
5146;BME280;2591;48.144;15.152;2024-03-22T00:35:24;76396.28;;;-144.65;100.00
5146;BME280;2591;48.144;15.152;2024-03-22T00:38:09;76392.22;;;-144.65;100.00
5146;BME280;2591;48.144;15.152;2024-03-22T00:40:54;76402.41;;;-144.65;100.00
5146;BME280;2591;48.144;15.152;2024-03-22T00:43:39;76400.38;;;-144.65;100.00
5146;BME280;2591;48.144;15.152;2024-03-22T00:46:25;76388.13;;;-144.65;100.00
5146;BME280;2591;48.144;15.152;2024-03-22T00:49:10;76400.38;;;-144.65;100.00
5146;BME280;2591;48.144;15.152;2024-03-22T00:51:56;76404.44;;;-144.65;100.00
5146;BME280;2591;48.144;15.152;2024-03-22T00:54:41;76412.59;;;-144.65;100.00
5146;BME280;2591;48.144;15.152;2024-03-22T00:57:27;76424.84;;;-144.65;100.00
5146;BME280;2591;48.144;15.152;2024-03-22T01:00:12;76424.84;;;-144.65;100.00
5146;BME280;2591;48.144;15.152;2024-03-22T01:03:00;76422.78;;;-144.65;100.00
5146;BME280;2591;48.144;15.152;2024-03-22T01:05:44;76424.84;;;-144.65;100.00
5146;BME280;2591;48.144;15.152;2024-03-22T01:08:30;76424.84;;;-144.65;100.00
5146;BME280;2591;48.144;15.152;2024-03-22T01:11:15;76420.75;;;-144.65;100.00
5146;BME280;2591;48.144;15.152;2024-03-22T01:14:00;76420.75;;;-144.65;100.00
5146;BME280;2591;48.144;15.152;2024-03-22T01:16:45;76420.75;;;-144.65;100.00
5146;BME280;2591;48.144;15.152;2024-03-22T01:19:33;76424.84;;;-144.65;100.00
5146;BME280;2591;48.144;15.152;2024-03-22T01:22:18;76422.78;;;-144.65;100.00
5146;BME280;2591;48.144;15.152;2024-03-22T01:25:04;76424.84;;;-144.65;100.00
5146;BME280;2591;48.144;15.152;2024-03-22T01:27:48;76424.84;;;-144.65;100.00
5146;BME280;2591;48.144;15.152;2024-03-22T01:30:34;76432.97;;;-144.65;100.00
5146;BME280;2591;48.144;15.152;2024-03-22T01:33:21;76435.03;;;-144.65;100.00
5146;BME280;2591;48.144;15.152;2024-03-22T01:36:08;76428.91;;;-144.65;100.00
5146;BME280;2591;48.144;15.152;2024-03-22T01:38:52;76428.91;;;-144.65;100.00
5146;BME280;2591;48.144;15.152;2024-03-22T01:41:38;76432.97;;;-144.65;100.00
5146;BME280;2591;48.144;15.152;2024-03-22T01:44:27;76428.91;;;-144.65;100.00
5146;BME280;2591;48.144;15.152;2024-03-22T01:47:13;76424.84;;;-144.65;100.00
5146;BME280;2591;48.144;15.152;2024-03-22T01:49:57;76416.69;;;-144.65;100.00
5146;BME280;2591;48.144;15.152;2024-03-22T01:52:44;76416.69;;;-144.65;100.00
5146;BME280;2591;48.144;15.152;2024-03-22T01:55:29;76416.69;;;-144.65;100.00
5146;BME280;2591;48.144;15.152;2024-03-22T01:58:16;76416.69;;;-144.65;100.00
5146;BME280;2591;48.144;15.152;2024-03-22T02:01:01;76420.75;;;-144.65;100.00
5146;BME280;2591;48.144;15.152;2024-03-22T02:03:47;76418.72;;;-144.65;100.00
5146;BME280;2591;48.144;15.152;2024-03-22T02:06:31;76416.69;;;-144.65;100.00
5146;BME280;2591;48.144;15.152;2024-03-22T02:09:18;76414.63;;;-144.65;100.00
5146;BME280;2591;48.144;15.152;2024-03-22T02:12:05;76420.75;;;-144.65;100.00
5146;BME280;2591;48.144;15.152;2024-03-22T02:14:51;76424.84;;;-144.65;100.00
5146;BME280;2591;48.144;15.152;2024-03-22T02:17:35;76420.75;;;-144.65;100.00
5146;BME280;2591;48.144;15.152;2024-03-22T02:20:21;76424.84;;;-144.65;100.00
5146;BME280;2591;48.144;15.152;2024-03-22T02:23:06;76422.78;;;-144.65;100.00
5146;BME280;2591;48.144;15.152;2024-03-22T02:25:52;76422.78;;;-144.65;100.00
5146;BME280;2591;48.144;15.152;2024-03-22T02:28:37;76420.75;;;-144.65;100.00
5146;BME280;2591;48.144;15.152;2024-03-22T02:31:22;76420.75;;;-144.65;100.00
5146;BME280;2591;48.144;15.152;2024-03-22T02:34:08;76424.84;;;-144.65;100.00
5146;BME280;2591;48.144;15.152;2024-03-22T02:36:53;76420.75;;;-144.65;100.00
5146;BME280;2591;48.144;15.152;2024-03-22T02:39:37;76420.75;;;-144.65;100.00
5146;BME280;2591;48.144;15.152;2024-03-22T02:42:24;76420.75;;;-144.65;100.00
5146;BME280;2591;48.144;15.152;2024-03-22T02:45:09;76420.75;;;-144.65;100.00
5146;BME280;2591;48.144;15.152;2024-03-22T02:47:54;76420.75;;;-144.65;100.00
5146;BME280;2591;48.144;15.152;2024-03-22T02:50:40;76428.91;;;-144.65;100.00
5146;BME280;2591;48.144;15.152;2024-03-22T02:53:25;76432.97;;;-144.65;100.00
5146;BME280;2591;48.144;15.152;2024-03-22T02:56:10;76432.97;;;-144.65;100.00
5146;BME280;2591;48.144;15.152;2024-03-22T02:58:56;76435.03;;;-144.65;100.00
5146;BME280;2591;48.144;15.152;2024-03-22T03:01:42;76441.16;;;-144.65;100.00
5146;BME280;2591;48.144;15.152;2024-03-22T03:04:26;76451.34;;;-144.65;100.00
5146;BME280;2591;48.144;15.152;2024-03-22T03:07:12;76461.53;;;-144.65;100.00
5146;BME280;2591;48.144;15.152;2024-03-22T03:09:56;76461.53;;;-144.65;100.00
5146;BME280;2591;48.144;15.152;2024-03-22T03:12:42;76473.75;;;-144.65;100.00
5146;BME280;2591;48.144;15.152;2024-03-22T03:15:28;76471.72;;;-144.65;100.00
5146;BME280;2591;48.144;15.152;2024-03-22T03:18:14;76479.88;;;-144.65;100.00
5146;BME280;2591;48.144;15.152;2024-03-22T03:20:58;76481.91;;;-144.65;100.00
5146;BME280;2591;48.144;15.152;2024-03-22T03:23:43;76494.16;;;-144.65;100.00
5146;BME280;2591;48.144;15.152;2024-03-22T03:26:28;76490.06;;;-144.65;100.00
5146;BME280;2591;48.144;15.152;2024-03-22T03:29:13;76500.28;;;-144.65;100.00
5146;BME280;2591;48.144;15.152;2024-03-22T03:31:59;76502.31;;;-144.65;100.00
5146;BME280;2591;48.144;15.152;2024-03-22T03:34:44;76483.97;;;-144.65;100.00
5146;BME280;2591;48.144;15.152;2024-03-22T03:37:29;76490.06;;;-144.65;100.00
5146;BME280;2591;48.144;15.152;2024-03-22T03:40:14;76510.47;;;-144.65;100.00
5146;BME280;2591;48.144;15.152;2024-03-22T03:42:59;76518.63;;;-144.65;100.00
5146;BME280;2591;48.144;15.152;2024-03-22T03:45:44;76518.63;;;-144.65;100.00
5146;BME280;2591;48.144;15.152;2024-03-22T03:48:30;76522.69;;;-144.65;100.00
5146;BME280;2591;48.144;15.152;2024-03-22T03:51:15;76530.84;;;-144.65;100.00
5146;BME280;2591;48.144;15.152;2024-03-22T03:54:00;76539.00;;;-144.65;100.00
5146;BME280;2591;48.144;15.152;2024-03-22T03:56:45;76534.94;;;-144.65;100.00
5146;BME280;2591;48.144;15.152;2024-03-22T03:59:30;76549.22;;;-144.65;100.00
5146;BME280;2591;48.144;15.152;2024-03-22T04:02:16;76551.25;;;-144.65;100.00
5146;BME280;2591;48.144;15.152;2024-03-22T04:05:01;76563.47;;;-144.65;100.00
5146;BME280;2591;48.144;15.152;2024-03-22T04:07:47;76563.47;;;-144.65;100.00
5146;BME280;2591;48.144;15.152;2024-03-22T04:10:32;76567.56;;;-144.65;100.00
5146;BME280;2591;48.144;15.152;2024-03-22T04:13:17;76563.47;;;-144.65;100.00
5146;BME280;2591;48.144;15.152;2024-03-22T04:16:02;76571.63;;;-144.65;100.00
5146;BME280;2591;48.144;15.152;2024-03-22T04:18:48;76571.63;;;-144.65;100.00
5146;BME280;2591;48.144;15.152;2024-03-22T04:21:34;76563.47;;;-144.65;100.00
5146;BME280;2591;48.144;15.152;2024-03-22T04:24:19;76575.72;;;-144.65;100.00
5146;BME280;2591;48.144;15.152;2024-03-22T04:27:04;76583.88;;;-144.65;100.00
5146;BME280;2591;48.144;15.152;2024-03-22T04:29:51;76577.75;;;-144.65;100.00
5146;BME280;2591;48.144;15.152;2024-03-22T04:32:36;76575.72;;;-144.65;100.00
5146;BME280;2591;48.144;15.152;2024-03-22T04:35:21;76577.75;;;-144.65;100.00
5146;BME280;2591;48.144;15.152;2024-03-22T04:38:07;76575.72;;;-144.65;100.00
5146;BME280;2591;48.144;15.152;2024-03-22T04:40:53;76569.59;;;-144.65;100.00
5146;BME280;2591;48.144;15.152;2024-03-22T04:43:38;76567.56;;;-144.65;100.00
5146;BME280;2591;48.144;15.152;2024-03-22T04:46:24;76577.75;;;-144.65;100.00
5146;BME280;2591;48.144;15.152;2024-03-22T04:49:10;76571.63;;;-144.65;100.00
5146;BME280;2591;48.144;15.152;2024-03-22T04:51:54;76563.47;;;-144.65;100.00
5146;BME280;2591;48.144;15.152;2024-03-22T04:54:41;76559.41;;;-144.65;100.00
5146;BME280;2591;48.144;15.152;2024-03-22T04:57:26;76559.41;;;-144.65;100.00
5146;BME280;2591;48.144;15.152;2024-03-22T05:00:12;76561.44;;;-144.65;100.00
5146;BME280;2591;48.144;15.152;2024-03-22T05:02:57;76563.47;;;-144.65;100.00
5146;BME280;2591;48.144;15.152;2024-03-22T05:05:42;76561.44;;;-144.65;100.00
5146;BME280;2591;48.144;15.152;2024-03-22T05:08:27;76559.41;;;-144.65;100.00
5146;BME280;2591;48.144;15.152;2024-03-22T05:11:14;76559.41;;;-144.65;100.00
5146;BME280;2591;48.144;15.152;2024-03-22T05:13:58;76557.38;;;-144.65;100.00
5146;BME280;2591;48.144;15.152;2024-03-22T05:16:44;76563.47;;;-144.65;100.00
5146;BME280;2591;48.144;15.152;2024-03-22T05:19:28;76557.38;;;-144.65;100.00
5146;BME280;2591;48.144;15.152;2024-03-22T05:22:14;76545.13;;;-144.65;100.00
5146;BME280;2591;48.144;15.152;2024-03-22T05:24:58;76543.09;;;-144.65;100.00
5146;BME280;2591;48.144;15.152;2024-03-22T05:27:45;76532.91;;;-144.65;100.00
5146;BME280;2591;48.144;15.152;2024-03-22T05:30:30;76528.81;;;-144.65;100.00
5146;BME280;2591;48.144;15.152;2024-03-22T05:33:15;76526.78;;;-144.65;100.00
5146;BME280;2591;48.144;15.152;2024-03-22T05:36:00;76522.69;;;-144.65;100.00
5146;BME280;2591;48.144;15.152;2024-03-22T05:38:45;76522.69;;;-144.65;100.00
5146;BME280;2591;48.144;15.152;2024-03-22T05:41:30;76536.97;;;-144.65;100.00
5146;BME280;2591;48.144;15.152;2024-03-22T05:44:17;76530.84;;;-144.65;100.00
5146;BME280;2591;48.144;15.152;2024-03-22T05:47:02;76543.09;;;-144.65;100.00
5146;BME280;2591;48.144;15.152;2024-03-22T05:49:47;76528.81;;;-144.65;100.00
5146;BME280;2591;48.144;15.152;2024-03-22T05:52:33;76534.94;;;-144.65;100.00
5146;BME280;2591;48.144;15.152;2024-03-22T05:55:19;76541.06;;;-144.65;100.00
5146;BME280;2591;48.144;15.152;2024-03-22T05:58:03;76547.16;;;-144.65;100.00
5146;BME280;2591;48.144;15.152;2024-03-22T06:00:50;76543.09;;;-144.65;100.00
5146;BME280;2591;48.144;15.152;2024-03-22T06:03:35;76549.22;;;-144.65;100.00
5146;BME280;2591;48.144;15.152;2024-03-22T06:06:20;76567.56;;;-144.65;100.00
5146;BME280;2591;48.144;15.152;2024-03-22T06:09:09;76561.44;;;-144.65;100.00
5146;BME280;2591;48.144;15.152;2024-03-22T06:11:55;76555.31;;;-144.65;100.00
5146;BME280;2591;48.144;15.152;2024-03-22T06:14:41;76557.38;;;-144.65;100.00
5146;BME280;2591;48.144;15.152;2024-03-22T06:17:28;76551.25;;;-144.65;100.00
5146;BME280;2591;48.144;15.152;2024-03-22T06:20:14;76545.13;;;-144.65;100.00
5146;BME280;2591;48.144;15.152;2024-03-22T06:22:58;76543.09;;;-144.65;100.00
5146;BME280;2591;48.144;15.152;2024-03-22T06:25:51;76530.84;;;-144.65;100.00
5146;BME280;2591;48.144;15.152;2024-03-22T06:28:35;76522.69;;;-144.65;100.00
5146;BME280;2591;48.144;15.152;2024-03-22T06:31:21;76496.19;;;-144.65;100.00
5146;BME280;2591;48.144;15.152;2024-03-22T06:34:07;76483.97;;;-144.65;100.00
5146;BME280;2591;48.144;15.152;2024-03-22T06:36:52;76463.56;;;-144.65;100.00
5146;BME280;2591;48.144;15.152;2024-03-22T06:39:37;76439.09;;;-144.65;100.00
5146;BME280;2591;48.144;15.152;2024-03-22T06:42:23;76422.78;;;-144.65;100.00
5146;BME280;2591;48.144;15.152;2024-03-22T06:45:08;76418.72;;;-144.65;100.00
5146;BME280;2591;48.144;15.152;2024-03-22T06:47:54;76416.69;;;-144.65;100.00
5146;BME280;2591;48.144;15.152;2024-03-22T06:50:40;76400.38;;;-144.65;100.00
5146;BME280;2591;48.144;15.152;2024-03-22T06:53:26;76377.94;;;-144.65;100.00
5146;BME280;2591;48.144;15.152;2024-03-22T06:56:12;76369.78;;;-144.65;100.00
5146;BME280;2591;48.144;15.152;2024-03-22T06:58:57;76361.63;;;-144.65;100.00
5146;BME280;2591;48.144;15.152;2024-03-22T07:01:42;76351.44;;;-144.65;100.00
5146;BME280;2591;48.144;15.152;2024-03-22T07:04:28;76331.03;;;-144.65;100.00
5146;BME280;2591;48.144;15.152;2024-03-22T07:07:15;76316.75;;;-144.65;100.00
5146;BME280;2591;48.144;15.152;2024-03-22T07:09:59;76306.56;;;-144.65;100.00
5146;BME280;2591;48.144;15.152;2024-03-22T07:12:44;76304.53;;;-144.65;100.00
5146;BME280;2591;48.144;15.152;2024-03-22T07:15:29;76298.41;;;-144.65;100.00
5146;BME280;2591;48.144;15.152;2024-03-22T07:18:16;76310.66;;;-144.65;100.00
5146;BME280;2591;48.144;15.152;2024-03-22T07:21:01;76308.59;;;-144.65;100.00
5146;BME280;2591;48.144;15.152;2024-03-22T07:23:49;76306.56;;;-144.65;100.00
5146;BME280;2591;48.144;15.152;2024-03-22T07:26:34;76294.34;;;-144.65;100.00
5146;BME280;2591;48.144;15.152;2024-03-22T07:29:19;76286.19;;;-144.65;100.00
5146;BME280;2591;48.144;15.152;2024-03-22T07:32:04;76284.16;;;-144.65;100.00
5146;BME280;2591;48.144;15.152;2024-03-22T07:34:50;76269.88;;;-144.65;100.00
5146;BME280;2591;48.144;15.152;2024-03-22T07:37:34;76269.88;;;-144.65;100.00
5146;BME280;2591;48.144;15.152;2024-03-22T07:40:21;76269.88;;;-144.65;100.00
5146;BME280;2591;48.144;15.152;2024-03-22T07:43:06;76280.06;;;-144.65;100.00
5146;BME280;2591;48.144;15.152;2024-03-22T07:45:51;76286.19;;;-144.65;100.00
5146;BME280;2591;48.144;15.152;2024-03-22T07:48:36;76284.16;;;-144.65;100.00
5146;BME280;2591;48.144;15.152;2024-03-22T07:51:21;76276.00;;;-144.65;100.00
5146;BME280;2591;48.144;15.152;2024-03-22T07:54:06;76269.88;;;-144.65;100.00
5146;BME280;2591;48.144;15.152;2024-03-22T07:56:53;76269.88;;;-144.65;100.00
5146;BME280;2591;48.144;15.152;2024-03-22T07:59:38;76267.84;;;-144.65;100.00
5146;BME280;2591;48.144;15.152;2024-03-22T08:02:25;76257.63;;;-144.65;100.00
5146;BME280;2591;48.144;15.152;2024-03-22T08:05:09;76251.53;;;-144.65;100.00
5146;BME280;2591;48.144;15.152;2024-03-22T08:07:55;76245.41;;;-144.65;100.00
5146;BME280;2591;48.144;15.152;2024-03-22T08:10:40;76233.16;;;-144.65;100.00
5146;BME280;2591;48.144;15.152;2024-03-22T08:13:27;76222.97;;;-144.65;100.00
5146;BME280;2591;48.144;15.152;2024-03-22T08:16:12;76222.97;;;-144.65;100.00
5146;BME280;2591;48.144;15.152;2024-03-22T08:18:57;76210.75;;;-144.65;100.00
5146;BME280;2591;48.144;15.152;2024-03-22T08:21:42;76180.16;;;-144.65;100.00
5146;BME280;2591;48.144;15.152;2024-03-22T08:24:28;76184.25;;;-144.65;100.00
5146;BME280;2591;48.144;15.152;2024-03-22T08:27:13;76184.25;;;-144.65;100.00
5146;BME280;2591;48.144;15.152;2024-03-22T08:30:00;76159.78;;;-144.65;100.00
5146;BME280;2591;48.144;15.152;2024-03-22T08:32:45;76143.47;;;-144.65;100.00
5146;BME280;2591;48.144;15.152;2024-03-22T08:35:30;76133.25;;;-144.65;100.00
5146;BME280;2591;48.144;15.152;2024-03-22T08:38:15;76080.25;;;-144.65;100.00
5146;BME280;2591;48.144;15.152;2024-03-22T08:41:02;76061.91;;;-144.65;100.00
5146;BME280;2591;48.144;15.152;2024-03-22T08:43:47;76057.84;;;-144.65;100.00
5146;BME280;2591;48.144;15.152;2024-03-22T08:46:35;76019.09;;;-144.65;100.00
5146;BME280;2591;48.144;15.152;2024-03-22T08:49:21;76021.13;;;-144.65;100.00
5146;BME280;2591;48.144;15.152;2024-03-22T08:52:08;76019.09;;;-144.65;100.00
5146;BME280;2591;48.144;15.152;2024-03-22T08:54:53;75976.28;;;-144.65;100.00
5146;BME280;2591;48.144;15.152;2024-03-22T08:57:39;75939.59;;;-144.65;99.73
5146;BME280;2591;48.144;15.152;2024-03-22T09:00:24;75939.59;;;-144.65;96.71
5146;BME280;2591;48.144;15.152;2024-03-22T09:03:13;75882.50;;;-144.65;96.49
5146;BME280;2591;48.144;15.152;2024-03-22T09:05:59;75711.25;;;-144.65;87.15
5146;BME280;2591;48.144;15.152;2024-03-22T09:08:44;75701.06;;;-144.65;81.73
5146;BME280;2591;48.144;15.152;2024-03-22T09:11:29;75588.94;;;-144.65;79.66
5146;BME280;2591;48.144;15.152;2024-03-22T09:14:16;75556.34;;;-144.65;74.05
5146;BME280;2591;48.144;15.152;2024-03-22T09:17:01;75499.25;;;-144.65;72.21
5146;BME280;2591;48.144;15.152;2024-03-22T09:19:48;75535.94;;;-144.65;70.56
5146;BME280;2591;48.144;15.152;2024-03-22T09:22:33;75507.41;;;-144.65;70.69
5146;BME280;2591;48.144;15.152;2024-03-22T09:25:19;75523.72;;;-144.65;70.35
5146;BME280;2591;48.144;15.152;2024-03-22T09:28:04;75507.41;;;-144.65;70.45
5146;BME280;2591;48.144;15.152;2024-03-22T09:30:50;75572.63;;;-144.65;70.42
5146;BME280;2591;48.144;15.152;2024-03-22T09:33:34;75627.69;;;-144.65;73.55
5146;BME280;2591;48.144;15.152;2024-03-22T09:36:22;75519.63;;;-144.65;72.54
5146;BME280;2591;48.144;15.152;2024-03-22T09:39:09;75540.03;;;-144.65;71.65
5146;BME280;2591;48.144;15.152;2024-03-22T09:41:57;75633.78;;;-144.65;72.56
5146;BME280;2591;48.144;15.152;2024-03-22T09:44:47;75660.28;;;-144.65;75.13
5146;BME280;2591;48.144;15.152;2024-03-22T09:47:33;75654.19;;;-144.65;77.16
5146;BME280;2591;48.144;15.152;2024-03-22T09:50:19;75574.69;;;-144.65;75.18
5146;BME280;2591;48.144;15.152;2024-03-22T09:53:06;75607.28;;;-144.65;73.60
5146;BME280;2591;48.144;15.152;2024-03-22T09:55:54;75584.88;;;-144.65;76.32
5146;BME280;2591;48.144;15.152;2024-03-22T09:58:42;75570.59;;;-144.65;72.65
5146;BME280;2591;48.144;15.152;2024-03-22T10:01:30;75580.78;;;-144.65;72.81
5146;BME280;2591;48.144;15.152;2024-03-22T10:04:16;75537.97;;;-144.65;73.46
5146;BME280;2591;48.144;15.152;2024-03-22T10:07:04;75588.94;;;-144.65;72.47
5146;BME280;2591;48.144;15.152;2024-03-22T10:09:51;75499.25;;;-144.65;72.47
5146;BME280;2591;48.144;15.152;2024-03-22T10:12:37;75560.41;;;-144.65;73.53
5146;BME280;2591;48.144;15.152;2024-03-22T10:15:23;75452.38;;;-144.65;72.14
5146;BME280;2591;48.144;15.152;2024-03-22T10:18:11;75438.09;;;-144.65;69.54
5146;BME280;2591;48.144;15.152;2024-03-22T10:21:00;75399.38;;;-144.65;67.65
5146;BME280;2591;48.144;15.152;2024-03-22T10:23:46;75389.19;;;-144.65;67.29
5146;BME280;2591;48.144;15.152;2024-03-22T10:26:34;75372.88;;;-144.65;66.73
5146;BME280;2591;48.144;15.152;2024-03-22T10:29:21;75383.06;;;-144.65;66.12
5146;BME280;2591;48.144;15.152;2024-03-22T10:32:06;75372.88;;;-144.65;66.93
5146;BME280;2591;48.144;15.152;2024-03-22T10:34:54;75429.94;;;-144.65;68.90
5146;BME280;2591;48.144;15.152;2024-03-22T10:37:39;75405.50;;;-144.65;66.28
5146;BME280;2591;48.144;15.152;2024-03-22T10:40:25;75405.50;;;-144.65;67.10
5146;BME280;2591;48.144;15.152;2024-03-22T10:43:13;75360.66;;;-144.65;66.00
5146;BME280;2591;48.144;15.152;2024-03-22T10:46:01;75368.78;;;-144.65;66.83
5146;BME280;2591;48.144;15.152;2024-03-22T10:48:50;75360.66;;;-144.65;66.89
5146;BME280;2591;48.144;15.152;2024-03-22T10:51:35;75407.53;;;-144.65;67.97
5146;BME280;2591;48.144;15.152;2024-03-22T10:54:26;75379.00;;;-144.65;68.84
5146;BME280;2591;48.144;15.152;2024-03-22T10:57:14;75405.50;;;-144.65;67.81
5146;BME280;2591;48.144;15.152;2024-03-22T11:00:03;75415.69;;;-144.65;68.96
5146;BME280;2591;48.144;15.152;2024-03-22T11:02:48;75454.41;;;-144.65;67.85
5146;BME280;2591;48.144;15.152;2024-03-22T11:05:33;75464.59;;;-144.65;67.66
5146;BME280;2591;48.144;15.152;2024-03-22T11:08:23;75432.00;;;-144.65;65.98
5146;BME280;2591;48.144;15.152;2024-03-22T11:11:10;75434.03;;;-144.65;63.48
5146;BME280;2591;48.144;15.152;2024-03-22T11:13:55;75487.03;;;-144.65;64.88
5146;BME280;2591;48.144;15.152;2024-03-22T11:16:44;75434.03;;;-144.65;64.82
5146;BME280;2591;48.144;15.152;2024-03-22T11:19:29;75411.59;;;-144.65;65.90
5146;BME280;2591;48.144;15.152;2024-03-22T11:22:14;75425.88;;;-144.65;63.91
5146;BME280;2591;48.144;15.152;2024-03-22T11:24:59;75407.53;;;-144.65;63.61
5146;BME280;2591;48.144;15.152;2024-03-22T11:27:44;75364.72;;;-144.65;61.99
5146;BME280;2591;48.144;15.152;2024-03-22T11:30:29;75366.75;;;-144.65;62.04
5146;BME280;2591;48.144;15.152;2024-03-22T11:33:17;75344.34;;;-144.65;60.46
5146;BME280;2591;48.144;15.152;2024-03-22T11:36:03;75360.66;;;-144.65;62.69
5146;BME280;2591;48.144;15.152;2024-03-22T11:38:48;75328.03;;;-144.65;58.49
5146;BME280;2591;48.144;15.152;2024-03-22T11:41:34;75362.69;;;-144.65;60.50
5146;BME280;2591;48.144;15.152;2024-03-22T11:44:20;75319.88;;;-144.65;59.54
5146;BME280;2591;48.144;15.152;2024-03-22T11:47:07;75362.69;;;-144.65;60.55
5146;BME280;2591;48.144;15.152;2024-03-22T11:49:53;75366.75;;;-144.65;59.77
5146;BME280;2591;48.144;15.152;2024-03-22T11:52:40;75405.50;;;-144.65;59.55
5146;BME280;2591;48.144;15.152;2024-03-22T11:55:27;75417.72;;;-144.65;61.82
5146;BME280;2591;48.144;15.152;2024-03-22T11:58:13;75360.66;;;-144.65;60.46
5146;BME280;2591;48.144;15.152;2024-03-22T12:00:57;75372.88;;;-144.65;61.49
5146;BME280;2591;48.144;15.152;2024-03-22T12:03:44;75348.41;;;-144.65;59.61
5146;BME280;2591;48.144;15.152;2024-03-22T12:06:30;75360.66;;;-144.65;60.30
5146;BME280;2591;48.144;15.152;2024-03-22T12:09:15;75360.66;;;-144.65;61.26
5146;BME280;2591;48.144;15.152;2024-03-22T12:12:00;75293.38;;;-144.65;61.32
5146;BME280;2591;48.144;15.152;2024-03-22T12:14:45;75289.31;;;-144.65;60.62
5146;BME280;2591;48.144;15.152;2024-03-22T12:17:30;75303.56;;;-144.65;59.03
5146;BME280;2591;48.144;15.152;2024-03-22T12:20:15;75340.25;;;-144.65;60.49
5146;BME280;2591;48.144;15.152;2024-03-22T12:23:01;75338.22;;;-144.65;60.39
5146;BME280;2591;48.144;15.152;2024-03-22T12:25:47;75334.16;;;-144.65;60.22
5146;BME280;2591;48.144;15.152;2024-03-22T12:28:32;75315.81;;;-144.65;61.29
5146;BME280;2591;48.144;15.152;2024-03-22T12:31:17;75328.03;;;-144.65;60.06
5146;BME280;2591;48.144;15.152;2024-03-22T12:34:03;75311.72;;;-144.65;58.90
5146;BME280;2591;48.144;15.152;2024-03-22T12:36:48;75283.19;;;-144.65;58.99
5146;BME280;2591;48.144;15.152;2024-03-22T12:39:34;75307.66;;;-144.65;59.65
5146;BME280;2591;48.144;15.152;2024-03-22T12:42:19;75275.03;;;-144.65;59.28
5146;BME280;2591;48.144;15.152;2024-03-22T12:45:06;75275.03;;;-144.65;60.15
5146;BME280;2591;48.144;15.152;2024-03-22T12:47:51;75262.81;;;-144.65;60.29
5146;BME280;2591;48.144;15.152;2024-03-22T12:50:37;75246.50;;;-144.65;59.67
5146;BME280;2591;48.144;15.152;2024-03-22T12:53:23;75215.91;;;-144.65;58.13
5146;BME280;2591;48.144;15.152;2024-03-22T12:56:10;75197.56;;;-144.65;57.95
5146;BME280;2591;48.144;15.152;2024-03-22T12:58:56;75169.03;;;-144.65;58.20
5146;BME280;2591;48.144;15.152;2024-03-22T13:01:42;75181.28;;;-144.65;57.65
5146;BME280;2591;48.144;15.152;2024-03-22T13:04:28;75169.03;;;-144.65;58.68
5146;BME280;2591;48.144;15.152;2024-03-22T13:07:14;75140.50;;;-144.65;57.39
5146;BME280;2591;48.144;15.152;2024-03-22T13:09:59;75144.59;;;-144.65;57.53
5146;BME280;2591;48.144;15.152;2024-03-22T13:12:46;75144.59;;;-144.65;57.02
5146;BME280;2591;48.144;15.152;2024-03-22T13:15:32;75116.06;;;-144.65;56.39
5146;BME280;2591;48.144;15.152;2024-03-22T13:18:20;75132.34;;;-144.65;56.15
5146;BME280;2591;48.144;15.152;2024-03-22T13:21:05;75116.06;;;-144.65;56.21
5146;BME280;2591;48.144;15.152;2024-03-22T13:23:51;75128.28;;;-144.65;55.12
5146;BME280;2591;48.144;15.152;2024-03-22T13:26:35;75156.81;;;-144.65;56.63
5146;BME280;2591;48.144;15.152;2024-03-22T13:29:23;75140.50;;;-144.65;56.57
5146;BME280;2591;48.144;15.152;2024-03-22T13:32:07;75114.00;;;-144.65;56.13
5146;BME280;2591;48.144;15.152;2024-03-22T13:34:53;75079.38;;;-144.65;54.83
5146;BME280;2591;48.144;15.152;2024-03-22T13:37:38;75132.34;;;-144.65;55.16
5146;BME280;2591;48.144;15.152;2024-03-22T13:40:24;75148.66;;;-144.65;55.58
5146;BME280;2591;48.144;15.152;2024-03-22T13:43:08;75144.59;;;-144.65;55.73
5146;BME280;2591;48.144;15.152;2024-03-22T13:45:55;75128.28;;;-144.65;55.93
5146;BME280;2591;48.144;15.152;2024-03-22T13:48:41;75111.97;;;-144.65;55.22
5146;BME280;2591;48.144;15.152;2024-03-22T13:51:27;75107.91;;;-144.65;54.60
5146;BME280;2591;48.144;15.152;2024-03-22T13:54:13;75148.66;;;-144.65;56.42
5146;BME280;2591;48.144;15.152;2024-03-22T13:56:59;75124.19;;;-144.65;55.55
5146;BME280;2591;48.144;15.152;2024-03-22T13:59:45;75126.25;;;-144.65;56.21
5146;BME280;2591;48.144;15.152;2024-03-22T14:02:34;75126.25;;;-144.65;56.59
5146;BME280;2591;48.144;15.152;2024-03-22T14:05:18;75093.63;;;-144.65;55.90
5146;BME280;2591;48.144;15.152;2024-03-22T14:08:06;75083.44;;;-144.65;55.46
5146;BME280;2591;48.144;15.152;2024-03-22T14:10:51;75085.47;;;-144.65;55.36
5146;BME280;2591;48.144;15.152;2024-03-22T14:13:37;75109.94;;;-144.65;57.01
5146;BME280;2591;48.144;15.152;2024-03-22T14:16:23;75075.28;;;-144.65;56.92
5146;BME280;2591;48.144;15.152;2024-03-22T14:19:09;75042.69;;;-144.65;55.36